Time;durP1;ratioP1;P1;durP2;ratioP2;P2;SDS_P1;SDS_P2;PMS_P1;PMS_P2;Temp;Humidity;BMP_temperature;BMP_pressure;BME280_temperature;BME280_humidity;BME280_pressure;Samples;Min_cycle;Max_cycle;Signal;HPM_P1;HPM_P2
2024/04/20 00:00:13;;;;;;;1.48;0.57;;;;;;;8.35;63.39;98200.13;5417765;26;20105;-87
2024/04/20 00:02:39;;;;;;;0.85;0.55;;;;;;;8.09;63.67;98139.00;5417162;26;20003;-88
2024/04/20 00:05:09;;;;;;;1.27;0.57;;;;;;;8.55;64.81;98211.97;5418568;26;20011;-89
2024/04/20 00:07:35;;;;;;;1.90;0.88;;;;;;;8.74;63.70;98214.94;5419044;26;20028;-89
2024/04/20 00:10:01;;;;;;;1.73;0.65;;;;;;;8.71;63.76;98212.41;5418721;26;20331;-87
2024/04/20 00:12:27;;;;;;;1.27;0.68;;;;;;;8.61;65.32;98223.28;5450825;26;20395;-87
2024/04/20 00:14:52;;;;;;;1.65;0.70;;;;;;;8.11;66.42;98175.16;5451072;26;20458;-88
2024/04/20 00:17:18;;;;;;;1.35;0.60;;;;;;;8.41;66.84;98222.94;5416588;26;20002;-88
2024/04/20 00:19:44;;;;;;;1.60;0.88;;;;;;;8.53;67.29;98222.59;5451046;26;20373;-89
2024/04/20 00:22:13;;;;;;;1.00;0.68;;;;;;;8.32;66.72;98186.06;5419107;26;20037;-88
2024/04/20 00:24:39;;;;;;;2.55;1.00;;;;;;;8.52;67.56;98199.69;5416625;26;20136;-88
2024/04/20 00:27:06;;;;;;;1.30;0.57;;;;;;;8.43;69.11;98184.88;5450903;26;20003;-87
2024/04/20 00:29:32;;;;;;;1.65;0.50;;;;;;;8.35;70.02;98209.81;5419028;26;20018;-88
2024/04/20 00:31:58;;;;;;;0.82;0.50;;;;;;;8.41;70.04;98192.03;5416218;26;20034;-88
2024/04/20 00:34:25;;;;;;;1.40;0.75;;;;;;;8.54;70.31;98202.28;5418914;26;20084;-88
2024/04/20 00:36:51;;;;;;;1.83;0.60;;;;;;;8.54;68.79;98189.03;5450357;26;20022;-87
2024/04/20 00:39:20;;;;;;;2.53;1.40;;;;;;;8.12;68.84;98168.06;5418549;26;20078;-88
2024/04/20 00:41:46;;;;;;;3.15;1.50;;;;;;;7.90;69.62;98147.47;5418474;26;20127;-88
2024/04/20 00:44:12;;;;;;;2.67;1.40;;;;;;;8.32;68.83;98171.03;5418477;26;20003;-88
2024/04/20 00:46:38;;;;;;;3.70;2.00;;;;;;;8.32;70.08;98152.50;5412559;26;20006;-88
2024/04/20 00:49:05;;;;;;;5.63;1.90;;;;;;;8.29;70.80;98142.00;5450460;26;20014;-88
2024/04/20 00:51:31;;;;;;;3.10;1.67;;;;;;;8.21;71.60;98117.50;5418209;26;20006;-88
2024/04/20 00:53:59;;;;;;;2.47;1.20;;;;;;;8.65;72.43;98181.63;5421998;26;20007;-87
2024/04/20 00:56:30;;;;;;;3.40;1.35;;;;;;;8.23;73.23;98176.59;5454085;26;20003;-88
2024/04/20 00:58:57;;;;;;;3.97;1.48;;;;;;;8.33;72.55;98185.19;5453967;26;20085;-87
2024/04/20 01:01:23;;;;;;;3.00;1.60;;;;;;;8.40;75.21;98174.38;5419394;26;20007;-88
2024/04/20 01:03:49;;;;;;;2.67;1.40;;;;;;;8.24;77.39;98173.06;5453944;26;20014;-87
2024/04/20 01:06:15;;;;;;;2.40;1.27;;;;;;;8.02;78.10;98151.56;5467582;26;20372;-88
2024/04/20 01:08:42;;;;;;;2.80;1.48;;;;;;;8.15;76.46;98178.56;5457873;26;20014;-88
2024/04/20 01:11:08;;;;;;;2.22;1.10;;;;;;;7.97;72.58;98154.31;5481403;26;20002;-88
2024/04/20 01:13:37;;;;;;;2.28;1.40;;;;;;;8.34;72.41;98173.66;5481650;26;20014;-88
2024/04/20 01:16:03;;;;;;;4.68;1.50;;;;;;;8.40;71.59;98162.88;5443794;26;20013;-87
2024/04/20 01:18:29;;;;;;;1.65;1.02;;;;;;;7.90;70.81;98125.41;5452341;26;20082;-88
2024/04/20 01:20:56;;;;;;;2.42;1.17;;;;;;;8.15;70.88;98162.69;5453555;26;20006;-88
2024/04/20 01:23:23;;;;;;;1.88;1.20;;;;;;;8.21;68.49;98165.16;5453265;26;20839;-88
2024/04/20 01:25:51;;;;;;;1.88;0.85;;;;;;;8.21;68.46;98146.63;5454508;26;20041;-89
2024/04/20 01:28:17;;;;;;;2.55;1.08;;;;;;;8.29;67.37;98142.00;5484009;26;20002;-88
2024/04/20 01:30:43;;;;;;;1.10;0.70;;;;;;;8.30;71.43;98151.66;5455475;26;20009;-87
2024/04/20 01:33:10;;;;;;;1.70;0.60;;;;;;;7.66;71.44;98063.44;5452443;26;20039;-88
2024/04/20 01:35:39;;;;;;;1.50;0.90;;;;;;;8.16;72.11;98156.50;5486162;26;20002;-88
2024/04/20 01:38:05;;;;;;;1.98;0.80;;;;;;;8.02;70.03;98136.56;5454815;26;20006;-88
2024/04/20 01:40:32;;;;;;;2.45;1.15;;;;;;;8.00;69.80;98111.00;5481543;26;20010;-88
2024/04/20 01:43:00;;;;;;;3.20;1.02;;;;;;;8.29;71.01;98139.34;5457498;26;20037;-87
2024/04/20 01:45:26;;;;;;;2.17;0.85;;;;;;;8.05;71.24;98087.06;5454272;26;20034;-88
2024/04/20 01:47:52;;;;;;;1.27;0.77;;;;;;;8.03;71.08;98098.56;5453015;26;20074;-88
2024/04/20 01:50:18;;;;;;;1.02;0.63;;;;;;;8.27;72.33;98133.22;5457587;26;20086;-88
2024/04/20 01:52:44;;;;;;;2.13;0.85;;;;;;;8.24;72.60;98120.09;5483448;26;20011;-88
2024/04/20 01:55:10;;;;;;;1.73;0.63;;;;;;;8.35;73.71;98133.00;5456646;26;20006;-88
2024/04/20 01:57:36;;;;;;;1.25;0.77;;;;;;;8.47;72.94;98139.78;5454452;26;20002;-87
2024/04/20 02:00:06;;;;;;;1.63;0.73;;;;;;;7.84;72.89;98030.28;5481362;26;20461;-89
2024/04/20 02:02:32;;;;;;;2.88;0.93;;;;;;;8.19;74.16;98106.06;5451590;26;20006;-87
2024/04/20 02:04:58;;;;;;;2.15;0.85;;;;;;;8.39;73.75;98151.44;5450902;26;20021;-88
2024/04/20 02:07:24;;;;;;;2.85;1.13;;;;;;;8.35;72.94;98149.78;5454360;26;20465;-89
2024/04/20 02:09:50;;;;;;;2.88;1.02;;;;;;;8.34;73.16;98140.06;5454239;26;20344;-88
2024/04/20 02:12:16;;;;;;;2.25;0.85;;;;;;;7.69;74.58;98027.16;5454258;26;20002;-88
2024/04/20 02:14:42;;;;;;;1.33;0.70;;;;;;;7.76;75.26;98025.19;5454704;26;20017;-88
2024/04/20 02:17:11;;;;;;;3.72;0.98;;;;;;;7.78;76.35;98045.41;5451630;26;20310;-88
2024/04/20 02:19:37;;;;;;;1.90;1.05;;;;;;;7.75;76.44;98057.88;5454354;26;20006;-88
2024/04/20 02:22:03;;;;;;;2.00;0.88;;;;;;;8.34;76.94;98126.81;5480918;26;20002;-88
2024/04/20 02:24:29;;;;;;;1.35;0.90;;;;;;;8.10;76.19;98071.91;5483659;26;20043;-88
2024/04/20 02:26:55;;;;;;;1.95;0.98;;;;;;;8.13;75.08;98085.94;5448046;26;20007;-88
2024/04/20 02:29:21;;;;;;;2.13;0.90;;;;;;;7.80;74.28;98032.16;5453621;26;20042;-89
2024/04/20 02:31:48;;;;;;;1.92;0.90;;;;;;;7.75;73.15;98031.41;5451494;26;20040;-88
2024/04/20 02:34:17;;;;;;;2.55;1.02;;;;;;;8.02;69.69;98053.59;5489434;26;20378;-88
2024/04/20 02:36:43;;;;;;;1.83;1.10;;;;;;;8.42;70.57;98111.63;5452749;26;20014;-88
2024/04/20 02:39:09;;;;;;;4.45;1.13;;;;;;;8.49;70.09;98114.09;5481681;26;20029;-89
2024/04/20 02:41:35;;;;;;;2.17;1.23;;;;;;;7.98;69.53;98013.09;5449696;26;20025;-88
2024/04/20 02:44:01;;;;;;;2.63;1.13;;;;;;;8.17;68.00;98015.22;5448218;26;20030;-88
2024/04/20 02:46:27;;;;;;;2.40;1.02;;;;;;;8.65;67.23;98112.72;5485810;26;20042;-88
2024/04/20 02:48:53;;;;;;;3.58;1.27;;;;;;;8.45;66.62;98112.44;5450256;26;20006;-89
2024/04/20 02:51:22;;;;;;;2.20;1.48;;;;;;;8.55;66.65;98113.94;5485858;26;20006;-88
2024/04/20 02:53:48;;;;;;;1.92;1.15;;;;;;;7.77;67.06;98025.16;5456458;26;20038;-89
2024/04/20 02:56:14;;;;;;;3.92;1.70;;;;;;;8.38;66.19;98109.94;5453610;26;20353;-88
2024/04/20 02:58:40;;;;;;;1.80;1.10;;;;;;;8.23;66.15;98074.16;5483292;26;20016;-88
2024/04/20 03:01:06;;;;;;;3.92;1.33;;;;;;;8.18;65.76;98051.38;5451035;26;20009;-89
2024/04/20 03:03:32;;;;;;;1.90;1.05;;;;;;;8.59;65.00;98104.97;5481347;26;20014;-88
2024/04/20 03:05:59;;;;;;;0.98;0.77;;;;;;;8.12;63.30;98025.94;5449603;26;20074;-89
2024/04/20 03:08:27;;;;;;;3.25;1.13;;;;;;;8.50;64.40;98098.16;5453342;26;20051;-88
2024/04/20 03:10:53;;;;;;;2.55;0.98;;;;;;;8.57;63.48;98112.97;5450786;26;20009;-89
2024/04/20 03:13:19;;;;;;;1.95;1.13;;;;;;;8.33;63.16;98081.88;5453597;26;20021;-88
2024/04/20 03:15:45;;;;;;;1.80;0.95;;;;;;;8.29;62.39;98077.56;5443671;26;20003;-87
2024/04/20 03:18:11;;;;;;;3.10;1.33;;;;;;;8.05;63.10;98071.19;5484966;26;20109;-86
2024/04/20 03:20:37;;;;;;;1.17;0.80;;;;;;;8.19;63.15;98106.94;5453875;26;20469;-88
2024/04/20 03:23:04;;;;;;;1.70;0.80;;;;;;;8.07;62.46;98074.63;5447763;26;20062;-87
2024/04/20 03:25:32;;;;;;;1.27;0.88;;;;;;;7.82;62.24;98033.84;5488360;26;20014;-87
2024/04/20 03:27:58;;;;;;;1.88;0.93;;;;;;;7.91;61.49;98032.69;5451039;26;20029;-87
2024/04/20 03:30:24;;;;;;;1.20;0.90;;;;;;;8.09;61.11;98073.69;5474380;26;20002;-88
2024/04/20 03:32:50;;;;;;;1.63;0.90;;;;;;;8.25;61.17;98102.41;5485539;26;20028;-87
2024/04/20 03:35:16;;;;;;;2.50;0.60;;;;;;;8.02;61.15;98040.34;5476628;26;20010;-88
2024/04/20 03:37:43;;;;;;;1.55;0.85;;;;;;;8.34;59.92;98095.03;5453229;26;20014;-88
2024/04/20 03:40:09;;;;;;;1.30;0.82;;;;;;;8.43;59.59;98086.00;5451085;26;20010;-89
2024/04/20 03:42:38;;;;;;;1.08;0.88;;;;;;;8.62;59.78;98086.31;5487811;26;20012;-88
2024/04/20 03:45:04;;;;;;;1.50;0.98;;;;;;;8.26;60.02;98028.16;5451010;26;20014;-89
2024/04/20 03:47:30;;;;;;;2.42;0.90;;;;;;;8.58;60.27;98076.72;5450064;26;20013;-88
2024/04/20 03:49:56;;;;;;;1.17;0.70;;;;;;;8.33;61.52;98040.34;5468774;26;20002;-88
2024/04/20 03:52:22;;;;;;;1.52;0.70;;;;;;;8.00;60.87;97979.50;5452352;26;20470;-88
2024/04/20 03:54:48;;;;;;;5.45;0.70;;;;;;;8.71;62.29;98088.69;5450110;26;20024;-89
2024/04/20 03:57:14;;;;;;;1.88;0.63;;;;;;;8.79;64.86;98084.03;5455389;26;20006;-88
2024/04/20 03:59:43;;;;;;;2.45;1.05;;;;;;;8.75;65.11;98073.56;5453203;26;20463;-89
2024/04/20 04:02:09;;;;;;;1.15;1.00;;;;;;;8.89;65.40;98076.66;5444093;26;20002;-88
2024/04/20 04:04:36;;;;;;;1.13;0.70;;;;;;;8.98;64.39;98081.66;5485142;26;20002;-88
2024/04/20 04:07:02;;;;;;;1.40;0.80;;;;;;;8.98;64.79;98073.72;5449148;26;20021;-88
2024/04/20 04:09:29;;;;;;;0.70;0.60;;;;;;;8.40;65.95;98041.03;5446588;26;20057;-88
2024/04/20 04:11:54;;;;;;;0.50;0.50;;;;;;;8.56;67.79;98044.97;5449199;26;20089;-88
2024/04/20 04:14:20;;;;;;;1.42;0.52;;;;;;;8.79;70.77;98070.75;5460228;26;20039;-88
2024/04/20 04:16:49;;;;;;;1.10;0.60;;;;;;;8.77;72.05;98067.28;5435580;26;20017;-88
2024/04/20 04:19:15;;;;;;;1.63;0.60;;;;;;;8.64;71.53;98035.00;5446681;26;20007;-88
2024/04/20 04:21:41;;;;;;;1.75;0.55;;;;;;;8.92;71.69;98071.25;5448375;26;20003;-88
2024/04/20 04:24:07;;;;;;;0.88;0.55;;;;;;;8.73;71.30;98063.00;5446491;26;20003;-88
2024/04/20 04:26:33;;;;;;;1.60;1.00;;;;;;;8.81;72.02;98060.13;5439634;26;20018;-88
2024/04/20 04:28:59;;;;;;;2.22;0.90;;;;;;;8.21;76.47;98000.97;5454490;26;20067;-89
2024/04/20 04:31:25;;;;;;;1.08;0.65;;;;;;;8.39;69.44;98045.47;5444367;26;20306;-89
2024/04/20 04:33:55;;;;;;;1.08;0.70;;;;;;;8.49;69.04;98038.13;5451796;26;20002;-88
2024/04/20 04:36:21;;;;;;;1.27;0.63;;;;;;;8.67;72.59;98073.78;5451203;26;20003;-88
2024/04/20 04:38:47;;;;;;;2.15;1.17;;;;;;;8.06;73.84;97962.56;5445972;26;20097;-88
2024/04/20 04:41:13;;;;;;;2.47;1.00;;;;;;;8.30;74.35;98000.69;5452578;26;20498;-88
2024/04/20 04:43:39;;;;;;;1.63;0.90;;;;;;;8.61;75.41;98044.84;5454398;26;20010;-87
2024/04/20 04:46:05;;;;;;;2.72;0.88;;;;;;;8.33;75.58;97989.16;5451625;26;20003;-87
2024/04/20 04:48:31;;;;;;;3.05;1.35;;;;;;;8.48;76.74;98014.31;5452833;26;20428;-88
2024/04/20 04:51:00;;;;;;;2.55;1.15;;;;;;;8.86;75.80;98070.56;5454372;26;20007;-88
2024/04/20 04:53:26;;;;;;;1.70;0.90;;;;;;;8.75;74.82;98063.81;5450550;26;20015;-89
2024/04/20 04:55:52;;;;;;;1.45;1.08;;;;;;;8.81;75.10;98071.59;5454858;26;20003;-88
2024/04/20 04:58:18;;;;;;;1.83;1.10;;;;;;;8.86;75.45;98070.56;5450947;26;20003;-88
2024/04/20 05:00:46;;;;;;;2.55;1.20;;;;;;;8.71;75.47;98050.72;5444321;26;20083;-88
2024/04/20 05:03:12;;;;;;;6.88;1.23;;;;;;;8.75;74.50;98055.00;5451492;26;20007;-88
2024/04/20 05:05:45;;;;;;;5.20;2.03;;;;;;;8.86;74.20;98066.13;5450867;26;20018;-89
2024/04/20 05:08:13;;;;;;;3.50;1.67;;;;;;;8.86;74.33;98081.19;5469744;26;20006;-89
2024/04/20 05:10:40;;;;;;;2.80;1.45;;;;;;;8.19;74.80;97971.88;5437228;26;20082;-88
2024/04/20 05:13:06;;;;;;;2.08;1.30;;;;;;;8.89;74.80;98078.41;5456791;26;20002;-89
2024/04/20 05:15:33;;;;;;;5.18;1.52;;;;;;;8.46;75.06;98006.44;5449628;26;20022;-88
2024/04/20 05:18:00;;;;;;;3.45;1.20;;;;;;;8.79;75.82;98076.06;5424032;26;19999;-89
2024/04/20 05:20:26;;;;;;;3.42;1.52;;;;;;;8.66;77.08;98074.72;5460987;26;20025;-89
2024/04/20 05:22:52;;;;;;;4.43;1.05;;;;;;;8.02;76.05;97961.81;5441116;26;20036;-89
2024/04/20 05:25:21;;;;;;;2.35;1.08;;;;;;;8.20;75.57;98002.75;5439812;26;20014;-88
2024/04/20 05:27:47;;;;;;;2.20;0.80;;;;;;;8.62;76.16;98065.97;5472540;26;20101;-88
2024/04/20 05:30:13;;;;;;;71.45;22.23;;;;;;;8.59;76.51;98046.66;5434806;26;20002;-88
2024/04/20 05:32:39;;;;;;;39.58;12.63;;;;;;;8.14;77.32;97954.41;5442683;26;20007;-89
2024/04/20 05:35:05;;;;;;;115.43;38.92;;;;;;;9.03;78.33;98084.16;5472181;26;20372;-88
2024/04/20 05:37:31;;;;;;;64.57;22.95;;;;;;;9.11;79.16;98082.16;5463865;26;20006;-88
2024/04/20 05:39:57;;;;;;;61.75;18.73;;;;;;;8.93;81.29;98050.91;5433223;26;20034;-89
2024/04/20 05:42:26;;;;;;;6.50;2.88;;;;;;;8.79;79.92;98031.00;5469247;26;20017;-88
2024/04/20 05:44:52;;;;;;;5.68;3.33;;;;;;;8.80;81.38;98075.16;5431398;26;20350;-88
2024/04/20 05:47:18;;;;;;;13.07;4.50;;;;;;;8.89;82.88;98081.06;5437463;26;20003;-87
2024/04/20 05:49:43;;;;;;;10.13;4.13;;;;;;;8.25;83.98;98028.22;5439385;26;20010;-88
2024/04/20 05:52:09;;;;;;;8.13;3.13;;;;;;;8.32;83.21;98053.63;5442977;26;20458;-87
2024/04/20 05:54:35;;;;;;;7.85;3.00;;;;;;;8.16;85.41;98054.06;5469646;26;20002;-89
2024/04/20 05:57:01;;;;;;;5.65;2.33;;;;;;;8.45;87.00;98076.22;5463776;26;19999;-88
2024/04/20 05:59:30;;;;;;;6.32;2.58;;;;;;;8.14;89.88;98055.03;5443853;26;20006;-88
2024/04/20 06:01:55;;;;;;;6.47;2.13;;;;;;;8.45;87.97;98097.41;5422389;26;20018;-90
2024/04/20 06:04:21;;;;;;;3.75;1.80;;;;;;;8.61;87.06;98092.53;5433226;26;20011;-88
2024/04/20 06:06:48;;;;;;;5.22;1.75;;;;;;;8.38;87.07;98032.25;5473076;26;20010;-89
2024/04/20 06:09:13;;;;;;;3.10;1.38;;;;;;;8.63;85.56;98080.09;5454859;26;20002;-89
2024/04/20 06:11:39;;;;;;;2.45;1.40;;;;;;;8.43;85.68;98009.16;5483809;26;20038;-89
2024/04/20 06:14:05;;;;;;;2.13;1.27;;;;;;;8.98;84.37;98064.91;5483053;26;20452;-88
2024/04/20 06:16:34;;;;;;;3.00;1.65;;;;;;;8.68;86.59;98077.31;5480724;26;20074;-89
2024/04/20 06:19:00;;;;;;;4.82;1.88;;;;;;;8.91;88.09;98077.44;5486277;26;20003;-89
2024/04/20 06:21:26;;;;;;;4.38;1.92;;;;;;;8.54;84.78;98069.78;5456675;26;20050;-87
2024/04/20 06:23:52;;;;;;;3.42;2.00;;;;;;;8.91;82.69;98026.22;5450055;26;20002;-89
2024/04/20 06:26:18;;;;;;;4.18;1.60;;;;;;;9.29;80.38;98046.19;5446693;26;20509;-89
2024/04/20 06:28:44;;;;;;;4.78;2.22;;;;;;;9.85;78.52;98074.34;5456470;26;20034;-89
2024/04/20 06:31:10;;;;;;;3.00;1.67;;;;;;;9.98;75.12;98019.88;5447535;26;20524;-88
2024/04/20 06:33:38;;;;;;;2.72;1.42;;;;;;;10.01;70.43;98032.16;5455431;26;20013;-89
2024/04/20 06:36:05;;;;;;;3.83;1.50;;;;;;;10.09;69.16;98069.94;5455252;26;20024;-89
2024/04/20 06:38:31;;;;;;;2.80;1.35;;;;;;;10.46;69.82;98061.50;5483284;26;20002;-89
2024/04/20 06:41:01;;;;;;;13.48;1.90;;;;;;;10.90;69.30;98066.03;5451775;26;20010;-90
2024/04/20 06:43:27;;;;;;;3.05;1.38;;;;;;;11.13;67.80;98050.94;5448854;26;20473;-89
2024/04/20 06:45:52;;;;;;;3.75;2.03;;;;;;;11.02;65.77;98025.63;5445608;26;20017;-90
2024/04/20 06:48:18;;;;;;;2.45;1.15;;;;;;;11.42;64.89;98050.59;5453613;26;20010;-89
2024/04/20 06:50:47;;;;;;;2.90;1.50;;;;;;;11.52;62.61;98065.25;5448018;26;20017;-89
2024/04/20 06:53:13;;;;;;;3.42;1.20;;;;;;;11.07;62.67;98054.72;5455676;26;20021;-89
2024/04/20 06:55:39;;;;;;;2.22;1.65;;;;;;;10.92;58.80;98024.25;5451363;26;20038;-89
2024/04/20 06:58:05;;;;;;;1.88;1.23;;;;;;;11.21;59.84;98011.56;5485788;26;20006;-91
2024/04/20 07:00:31;;;;;;;3.22;1.33;;;;;;;11.67;57.41;98037.09;5448569;26;20086;-90
2024/04/20 07:03:32;;;;;;;2.83;1.17;;;;;;;11.97;58.54;98055.38;5449953;26;20007;-96
2024/04/20 07:09:36;;;;;;;2.28;1.25;;;;;;;11.66;59.28;97907.53;5189723;27;19936;-96
2024/04/20 07:11:20;;;;;;;;;;;;;;;12.20;59.18;98051.66;5422881;26;20046;-95
2024/04/20 07:12:28;;;;;;;2.20;1.17;;;;;;;12.13;57.39;97967.59;5206498;27;20027;-96
2024/04/20 07:15:20;;;;;;;3.20;1.27;;;;;;;12.47;54.35;98038.91;5250720;27;20534;-95
2024/04/20 07:18:06;;;;;;;3.42;1.33;;;;;;;11.67;56.76;97965.19;5251108;27;20002;-96
2024/04/20 07:20:50;;;;;;;3.35;1.00;;;;;;;12.00;57.30;98054.38;5254286;27;20402;-96
2024/04/20 07:23:19;;;;;;;3.13;0.88;;;;;;;12.03;57.54;98056.91;5250198;27;19999;-94
2024/04/20 07:25:57;;;;;;;1.42;1.17;;;;;;;11.67;59.14;98058.41;5253133;27;20469;-95
2024/04/20 07:28:29;;;;;;;1.90;1.10;;;;;;;11.64;59.81;98055.00;5252942;27;20017;-96
2024/04/20 07:30:56;;;;;;;2.72;1.13;;;;;;;11.77;59.57;98058.84;5253321;27;20016;-92
2024/04/20 07:33:22;;;;;;;2.83;1.02;;;;;;;11.78;57.10;98049.94;5250442;27;20003;-93
2024/04/20 07:35:49;;;;;;;1.55;0.80;;;;;;;11.92;56.27;98042.25;5249278;27;20021;-94
2024/04/20 07:38:15;;;;;;;4.35;0.90;;;;;;;11.87;56.99;98052.22;5249495;27;19998;-94
2024/04/20 07:40:43;;;;;;;2.47;1.17;;;;;;;11.82;58.47;98048.00;5272306;27;20020;-95
2024/04/20 07:43:14;;;;;;;3.10;1.15;;;;;;;11.14;58.69;97999.44;5282500;27;20470;-93
2024/04/20 07:45:40;;;;;;;1.50;0.90;;;;;;;11.21;60.39;97972.53;5341358;26;20014;-95
2024/04/20 07:48:07;;;;;;;2.88;1.55;;;;;;;12.12;57.36;98044.03;5425360;26;20030;-93
2024/04/20 07:50:33;;;;;;;2.50;1.00;;;;;;;11.72;57.63;97949.88;5422379;26;20018;-93
2024/04/20 07:52:59;;;;;;;2.20;1.20;;;;;;;11.49;57.21;97907.41;5422816;26;20531;-93
2024/04/20 07:55:25;;;;;;;3.78;1.20;;;;;;;12.26;57.83;98030.06;5422639;26;20002;-93
2024/04/20 07:57:51;;;;;;;2.88;1.20;;;;;;;12.44;56.41;98019.50;5422292;26;20035;-94
2024/04/20 08:00:20;;;;;;;3.10;1.10;;;;;;;12.78;57.00;97989.41;5422900;26;20007;-92
2024/04/20 08:02:46;;;;;;;3.28;1.38;;;;;;;13.00;54.89;98031.06;5422531;26;20033;-91
2024/04/20 08:05:12;;;;;;;1.88;1.00;;;;;;;13.21;56.62;98027.34;5423215;26;20396;-93
2024/04/20 08:07:39;;;;;;;2.42;1.20;;;;;;;13.48;53.21;98027.78;5439035;26;20022;-93
2024/04/20 08:10:06;;;;;;;3.47;1.33;;;;;;;12.87;52.66;97927.59;5422539;26;19994;-92
2024/04/20 08:12:32;;;;;;;3.08;1.40;;;;;;;11.71;57.83;97944.63;5421876;26;20101;-92
2024/04/20 08:14:59;;;;;;;2.55;1.58;;;;;;;12.56;56.66;98040.25;5426680;26;20011;-92
2024/04/20 08:17:35;;;;;;;2.47;1.38;;;;;;;12.18;57.28;97973.56;5430579;26;20003;-92
2024/04/20 08:20:01;;;;;;;2.85;1.40;;;;;;;11.93;58.06;98037.81;5424358;26;20007;-92
2024/04/20 08:22:27;;;;;;;4.45;1.40;;;;;;;10.88;58.47;97930.41;5431825;26;20046;-93
2024/04/20 08:24:53;;;;;;;5.47;1.50;;;;;;;12.10;58.89;98056.56;5422418;26;19999;-94
2024/04/20 08:27:20;;;;;;;4.35;2.30;;;;;;;11.63;58.96;97968.06;5432937;26;20017;-92
2024/04/20 08:29:46;;;;;;;3.42;1.52;;;;;;;11.92;58.42;98062.69;5421892;26;20006;-93
2024/04/20 08:32:24;;;;;;;3.15;1.95;;;;;;;10.93;58.75;97889.47;5422356;26;20029;-96
2024/04/20 08:34:56;;;;;;;3.22;2.00;;;;;;;11.56;59.94;97987.88;5422898;26;20007;-94
2024/04/20 08:37:22;;;;;;;3.08;1.42;;;;;;;11.07;60.42;97913.69;5422536;26;20006;-94
2024/04/20 08:39:48;;;;;;;2.25;1.30;;;;;;;11.86;59.54;97970.56;5421543;26;20039;-90
2024/04/20 08:42:22;;;;;;;2.42;1.42;;;;;;;11.52;57.97;97907.31;5462944;26;20006;-92
2024/04/20 08:44:49;;;;;;;4.38;2.22;;;;;;;11.98;60.52;97989.63;5435868;26;20075;-91
2024/04/20 08:47:16;;;;;;;3.92;2.05;;;;;;;11.37;60.58;97940.78;5456738;26;20079;-93
2024/04/20 08:49:43;;;;;;;4.30;1.80;;;;;;;12.33;63.29;98047.50;5437437;26;20047;-92
2024/04/20 08:52:14;;;;;;;5.45;2.00;;;;;;;12.03;64.20;98055.09;5429415;26;20006;-92
2024/04/20 08:54:42;;;;;;;4.15;2.40;;;;;;;10.89;68.69;97942.81;5399364;26;20010;-94
2024/04/20 08:57:10;;;;;;;4.15;2.17;;;;;;;11.29;74.99;98063.53;5434954;26;20080;-91
2024/04/20 08:59:36;;;;;;;5.15;2.05;;;;;;;11.20;74.05;98002.72;5442979;26;20013;-92
2024/04/20 09:02:04;;;;;;;5.97;1.67;;;;;;;11.57;73.84;98062.38;5426507;26;20034;-93
2024/04/20 09:04:30;;;;;;;3.00;1.63;;;;;;;11.55;76.20;98010.13;5440149;26;20014;-93
2024/04/20 09:06:56;;;;;;;3.95;2.00;;;;;;;11.63;76.05;98040.81;5441256;26;20013;-91
2024/04/20 09:09:27;;;;;;;3.45;1.83;;;;;;;11.58;74.52;98061.47;5456379;26;20074;-92
2024/04/20 09:11:53;;;;;;;5.50;1.63;;;;;;;11.63;69.06;98030.16;5457077;26;20083;-93
2024/04/20 09:14:22;;;;;;;3.03;1.60;;;;;;;11.63;69.71;97981.38;5460638;26;20010;-94
2024/04/20 09:16:54;;;;;;;2.17;1.10;;;;;;;11.17;65.92;97919.47;5462719;26;20009;-95
2024/04/20 09:19:24;;;;;;;9.13;1.85;;;;;;;11.44;67.27;97928.06;5461749;26;20006;-93
2024/04/20 09:21:50;;;;;;;2.97;1.35;;;;;;;11.68;68.79;97972.25;5425404;26;20043;-94
2024/04/20 09:24:18;;;;;;;3.47;2.17;;;;;;;11.35;72.10;98056.25;5425378;26;20010;-96
2024/04/20 09:27:03;;;;;;;3.75;1.88;;;;;;;11.23;78.98;98031.88;5425790;26;19999;-93
2024/04/20 09:29:29;;;;;;;2.95;1.70;;;;;;;11.48;80.45;98068.97;5399973;26;20007;-93
2024/04/20 09:31:55;;;;;;;3.88;1.73;;;;;;;10.83;82.72;97990.94;5419032;26;20080;-91
2024/04/20 09:34:23;;;;;;;5.97;1.83;;;;;;;10.84;83.62;97992.69;5393107;26;20110;-94
2024/04/20 09:36:49;;;;;;;6.28;2.17;;;;;;;11.04;85.75;98021.13;5424478;26;20423;-93
2024/04/20 09:39:15;;;;;;;4.35;2.10;;;;;;;10.97;91.49;98026.75;5424541;26;20072;-94
2024/04/20 09:41:47;;;;;;;6.05;2.45;;;;;;;11.20;91.14;98052.41;5414853;26;20006;-92
2024/04/20 09:44:16;;;;;;;5.13;2.38;;;;;;;10.27;100.00;98008.13;5417789;26;20008;-92
2024/04/20 09:46:46;;;;;;;5.35;2.83;;;;;;;10.10;100.00;98042.44;5418140;26;20003;-93
2024/04/20 09:49:15;;;;;;;6.50;3.05;;;;;;;9.04;100.00;97926.78;5423299;26;20011;-93
2024/04/20 09:51:59;;;;;;;4.65;2.53;;;;;;;9.99;100.00;98058.78;5416895;26;20014;-92
2024/04/20 09:54:28;;;;;;;5.18;2.55;;;;;;;9.97;100.00;98063.28;5415758;26;20003;-93
2024/04/20 09:56:55;;;;;;;4.30;2.50;;;;;;;9.99;100.00;98058.78;5420059;26;20007;-93
2024/04/20 09:59:26;;;;;;;6.97;3.10;;;;;;;10.28;100.00;98055.06;5421784;26;20080;-92
2024/04/20 10:01:53;;;;;;;10.60;2.60;;;;;;;9.99;100.00;98020.72;5418129;26;20007;-94
2024/04/20 10:04:21;;;;;;;6.43;2.90;;;;;;;9.96;100.00;97968.59;5416699;26;20013;-93
2024/04/20 10:06:49;;;;;;;6.80;3.00;;;;;;;10.22;100.00;98047.31;5417177;26;20015;-91
2024/04/20 10:09:18;;;;;;;5.25;2.42;;;;;;;10.17;100.00;98059.03;5406990;26;20008;-93
2024/04/20 10:11:44;;;;;;;4.63;2.38;;;;;;;10.30;100.00;98049.75;5425501;26;20000;-94
2024/04/20 10:14:11;;;;;;;7.07;2.38;;;;;;;10.35;100.00;98050.41;5422463;26;20023;-94
2024/04/20 10:16:40;;;;;;;9.80;2.80;;;;;;;9.62;100.00;97937.09;5410716;26;20004;-94
2024/04/20 10:19:06;;;;;;;3.70;2.00;;;;;;;10.04;100.00;98043.56;5420047;26;20023;-93
2024/04/20 10:21:32;;;;;;;5.85;2.80;;;;;;;10.40;100.00;98005.91;5417554;26;20007;-93
2024/04/20 10:23:59;;;;;;;4.80;2.05;;;;;;;10.48;100.00;98038.38;5447652;26;20003;-94
2024/04/20 10:26:29;;;;;;;4.15;2.38;;;;;;;10.35;100.00;97972.50;5405967;26;20029;-93
2024/04/20 10:29:05;;;;;;;4.20;1.92;;;;;;;10.64;100.00;98036.00;5409420;26;20007;-94
2024/04/20 10:31:31;;;;;;;;;;;;;;;10.88;100.00;98036.81;5413495;26;20023;-94
2024/04/20 10:34:00;;;;;;;6.38;2.65;;;;;;;10.94;100.00;98040.16;5414009;26;19937;-95
2024/04/20 10:36:27;;;;;;;4.80;2.38;;;;;;;11.29;100.00;98028.06;5416819;26;20472;-94
2024/04/20 10:39:02;;;;;;;3.45;2.20;;;;;;;11.51;98.95;98004.06;5423352;26;20022;-93
2024/04/20 10:41:35;;;;;;;4.05;1.65;;;;;;;11.54;95.08;98014.59;5417274;26;20004;-92
2024/04/20 10:44:11;;;;;;;8.90;2.42;;;;;;;10.98;93.02;97888.34;5416155;26;19999;-95
2024/04/20 10:46:37;;;;;;;4.55;1.85;;;;;;;12.07;92.52;98008.72;5418375;26;20003;-91
2024/04/20 10:49:10;;;;;;;3.97;1.95;;;;;;;12.08;93.24;98010.47;5421383;26;20018;-94
2024/04/20 10:51:36;;;;;;;3.47;1.80;;;;;;;12.40;91.26;98009.91;5418828;26;20003;-92
2024/04/20 10:54:03;;;;;;;3.45;1.65;;;;;;;12.33;91.21;97966.66;5410399;26;20466;-90
2024/04/20 10:56:30;;;;;;;3.10;2.00;;;;;;;11.65;90.13;97903.16;5418656;26;20007;-91
2024/04/20 10:58:56;;;;;;;3.17;1.90;;;;;;;11.43;95.78;97929.00;5414091;26;20004;-92
2024/04/20 11:01:22;;;;;;;3.65;2.20;;;;;;;10.80;100.00;97863.41;5417506;26;20011;-93
2024/04/20 11:03:49;;;;;;;7.13;2.63;;;;;;;10.83;100.00;97956.34;5416521;26;20003;-94
2024/04/20 11:06:21;;;;;;;4.70;2.40;;;;;;;11.73;100.00;98014.63;5413739;26;20004;-89
2024/04/20 11:08:47;;;;;;;7.03;3.72;;;;;;;11.60;100.00;97971.75;5417048;26;20409;-93
2024/04/20 11:11:14;;;;;;;5.30;2.40;;;;;;;12.02;99.97;98010.72;5403856;26;20007;-93
2024/04/20 11:13:41;;;;;;;5.75;2.53;;;;;;;11.43;100.00;97963.63;5411134;26;20037;-92
2024/04/20 11:16:07;;;;;;;4.40;2.25;;;;;;;11.73;100.00;98009.31;5415525;26;20023;-90
2024/04/20 11:18:33;;;;;;;5.22;1.88;;;;;;;11.24;100.00;97871.25;5441654;26;20085;-92
2024/04/20 11:21:01;;;;;;;6.75;2.67;;;;;;;12.30;99.82;97990.81;5404625;26;20004;-93
2024/04/20 11:23:30;;;;;;;6.32;2.75;;;;;;;11.60;100.00;97937.13;5395152;26;20073;-93
2024/04/20 11:25:56;;;;;;;5.22;2.05;;;;;;;11.28;100.00;97933.19;5396473;26;20010;-92
2024/04/20 11:28:24;;;;;;;6.45;2.17;;;;;;;11.62;99.38;97924.56;5408945;26;20004;-95
2024/04/20 11:30:51;;;;;;;4.30;2.10;;;;;;;11.66;97.59;97902.19;5409836;26;19999;-92
2024/04/20 11:33:17;;;;;;;7.43;2.50;;;;;;;11.77;99.67;97931.00;5410511;26;20004;-91
2024/04/20 11:35:46;;;;;;;3.42;2.13;;;;;;;11.34;100.00;97895.66;5408921;26;20401;-91
2024/04/20 11:38:14;;;;;;;3.85;1.40;;;;;;;11.78;100.00;97947.88;5447794;26;20003;-93